This is the latest recevied weather packets stored in our database for station/object OH1KK. If no packets are shown the sender has not sent any weather packets the latest 10 day(s).
| Time | Temp. | Humidity | Pressure | Rain* | Wind** | Luminosity | Snow |
|---|---|---|---|---|---|---|---|
| 1777873780 | 6.11° C | 52% | 997.1 hPa | 0 mm | - | - | - |
| 1777871096 | 2.78° C | 64% | 997.7 hPa | 0 mm | - | - | - |
| 1777870180 | 2.22° C | 69% | 998.1 hPa | 0 mm | - | - | - |
| 1777868349 | 0.56° C | 71% | 998.1 hPa | 0 mm | - | - | - |
| 1777867495 | 0° C | 73% | 998.3 hPa | 0 mm | - | - | - |
| 1777865665 | -0.56° C | 74% | 998.6 hPa | 0 mm | - | - | - |
| 1777846756 | -1.11° C | 77% | 999.8 hPa | 0 mm | - | - | - |
| 1777845841 | -1.67° C | 78% | 1000 hPa | 0 mm | - | - | - |
| 1777839557 | 0.56° C | 69% | 1000.2 hPa | 0 mm | - | - | - |
| 1777808998 | 8.89° C | 37% | 999.8 hPa | 0 mm | - | - | - |
| 1777803564 | 8.33° C | 43% | 999.8 hPa | 0 mm | - | - | - |
| 1777802650 | 8.33° C | 42% | 1000.1 hPa | 0 mm | - | - | - |
| 1777799966 | 7.78° C | 46% | 999.8 hPa | 0 mm | - | - | - |
| 1777797281 | 7.78° C | 43% | 999.8 hPa | 0 mm | - | - | - |
| 1777796366 | 8.33° C | 44% | 999.5 hPa | 0 mm | - | - | - |
| 1777795450 | 7.22° C | 49% | 999.5 hPa | 0 mm | - | - | - |
| 1777792767 | 7.22° C | 52% | 999.5 hPa | 0 mm | - | - | - |
| 1777789168 | 6.11° C | 57% | 999.2 hPa | 0 mm | - | - | - |
| 1777787399 | 6.11° C | 59% | 998.8 hPa | 0 mm | - | - | - |
| 1777786485 | 5.56° C | 60% | 998.9 hPa | 0 mm | - | - | - |
| 1777785568 | 5.56° C | 62% | 998.9 hPa | 0 mm | - | - | - |
| 1777784653 | 5° C | 63% | 998.8 hPa | 0 mm | - | - | - |
| 1777782884 | 5° C | 69% | 998.6 hPa | 0 mm | - | - | - |
| 1777781969 | 4.44° C | 72% | 998.6 hPa | 0 mm | - | - | - |
| 1777779285 | 3.89° C | 85% | 998.5 hPa | 0 mm | - | - | - |
* Rain latest hour (hover to see other rain measurements)
** Current wind speed in m/s (hover to see current wind gust speed)